createdAt,value
2023-04-15T00:01:19.927Z,5.93
2023-04-15T00:03:50.044Z,5.98
2023-04-15T00:06:18.332Z,5.93
2023-04-15T00:08:46.584Z,5.92
2023-04-15T00:11:15.195Z,5.94
2023-04-15T00:13:44.182Z,5.92
2023-04-15T00:16:12.581Z,5.82
2023-04-15T00:18:41.392Z,5.92
2023-04-15T00:21:11.132Z,5.85
2023-04-15T00:23:39.383Z,5.83
2023-04-15T00:26:07.575Z,5.83
2023-04-15T00:28:35.846Z,5.88
2023-04-15T00:31:04.915Z,5.91
2023-04-15T00:33:33.520Z,5.93
2023-04-15T00:36:01.841Z,5.90
2023-04-15T00:38:31.623Z,5.89
2023-04-15T00:41:00.798Z,5.81
2023-04-15T00:43:29.769Z,5.85
2023-04-15T00:46:00.349Z,5.84
2023-04-15T00:48:29.558Z,5.76
2023-04-15T00:50:57.994Z,5.79
2023-04-15T00:53:26.287Z,5.81
2023-04-15T00:55:56.080Z,5.74
2023-04-15T00:58:24.751Z,5.77
2023-04-15T01:00:54.577Z,5.76
2023-04-15T01:03:23.069Z,5.72
2023-04-15T01:05:53.060Z,5.72
2023-04-15T01:08:21.280Z,5.71
2023-04-15T01:10:49.928Z,5.77
2023-04-15T01:13:19.632Z,5.68
2023-04-15T01:15:47.929Z,5.68
2023-04-15T01:18:16.878Z,5.69
2023-04-15T01:20:45.164Z,5.69
2023-04-15T01:23:13.578Z,5.71
2023-04-15T01:25:45.064Z,5.74
2023-04-15T01:28:13.986Z,5.70
2023-04-15T01:30:42.175Z,5.72
2023-04-15T01:33:10.510Z,5.73
2023-04-15T01:35:40.046Z,5.76
2023-04-15T01:38:10.063Z,5.74
2023-04-15T01:40:39.648Z,5.62
2023-04-15T01:43:09.625Z,5.74
2023-04-15T01:45:37.951Z,5.68
2023-04-15T01:48:06.464Z,5.67
2023-04-15T01:50:36.959Z,5.68
2023-04-15T01:53:05.377Z,5.62
2023-04-15T01:55:33.594Z,5.72
2023-04-15T01:58:01.944Z,5.70
2023-04-15T02:00:32.752Z,5.59
2023-04-15T02:03:01.386Z,5.64
2023-04-15T02:05:29.898Z,5.60
2023-04-15T02:07:58.776Z,5.62
2023-04-15T02:10:27.375Z,5.70
2023-04-15T02:12:55.617Z,5.70
2023-04-15T02:15:23.952Z,5.71
2023-04-15T02:17:55.504Z,5.65
2023-04-15T02:20:24.416Z,5.63
2023-04-15T02:22:52.467Z,5.68
2023-04-15T02:25:21.159Z,5.68
2023-04-15T02:27:49.392Z,5.59
2023-04-15T02:30:18.684Z,5.61
2023-04-15T02:32:48.052Z,5.64
2023-04-15T02:35:19.293Z,5.56
2023-04-15T02:37:47.564Z,5.72
2023-04-15T02:40:15.789Z,5.70
2023-04-15T02:42:44.512Z,5.68
2023-04-15T02:45:15.854Z,5.72
2023-04-15T02:47:46.119Z,5.73
2023-04-15T02:50:15.296Z,5.72
2023-04-15T02:52:45.992Z,5.68
2023-04-15T02:55:14.584Z,5.74
2023-04-15T02:57:42.806Z,5.77
2023-04-15T03:00:13.561Z,5.71
2023-04-15T03:02:44.467Z,5.73
2023-04-15T03:05:14.201Z,5.75
2023-04-15T03:07:50.244Z,5.81
2023-04-15T03:10:18.996Z,5.79
2023-04-15T03:12:48.185Z,5.78
2023-04-15T03:15:21.512Z,5.83
2023-04-15T03:17:52.968Z,5.86
2023-04-15T03:20:21.301Z,5.80
2023-04-15T03:22:51.563Z,5.77
2023-04-15T03:25:21.698Z,5.77
2023-04-15T03:27:50.025Z,5.81
2023-04-15T03:30:19.034Z,5.88
2023-04-15T03:32:47.718Z,5.90
2023-04-15T03:35:16.624Z,5.85
2023-04-15T03:37:44.860Z,5.84
2023-04-15T03:40:14.814Z,5.82
2023-04-15T03:42:43.101Z,5.86
2023-04-15T03:45:12.352Z,5.81
2023-04-15T03:47:40.784Z,5.81
2023-04-15T03:50:10.059Z,5.89
2023-04-15T03:52:38.318Z,5.86
2023-04-15T03:55:06.996Z,5.88
2023-04-15T03:57:39.957Z,5.88
2023-04-15T04:00:10.689Z,5.88
2023-04-15T04:02:41.959Z,5.93
2023-04-15T04:05:10.818Z,5.90
2023-04-15T04:07:38.909Z,5.91
2023-04-15T04:10:08.555Z,5.90
2023-04-15T04:12:36.753Z,5.91
2023-04-15T04:15:07.133Z,5.93
2023-04-15T04:17:35.438Z,5.88
2023-04-15T04:20:03.758Z,5.98
2023-04-15T04:22:32.063Z,5.93
2023-04-15T04:25:02.704Z,5.98
2023-04-15T04:27:31.131Z,5.99
2023-04-15T04:29:59.347Z,5.98
2023-04-15T04:32:29.077Z,6.00
2023-04-15T04:34:57.425Z,5.97
2023-04-15T04:37:25.869Z,6.01
2023-04-15T04:39:53.962Z,6.04
2023-04-15T04:42:22.334Z,6.05
2023-04-15T04:44:50.593Z,6.09
2023-04-15T04:47:18.733Z,6.13
2023-04-15T04:49:48.428Z,6.20
2023-04-15T04:52:16.902Z,6.22
2023-04-15T04:54:45.052Z,6.22
2023-04-15T04:57:13.806Z,6.24
2023-04-15T04:59:42.192Z,6.24
2023-04-15T05:02:10.614Z,6.29
2023-04-15T05:04:38.854Z,6.35
2023-04-15T05:07:08.526Z,6.36
2023-04-15T05:09:37.377Z,6.33
2023-04-15T05:12:05.973Z,6.34
2023-04-15T05:14:34.191Z,6.37
2023-04-15T05:17:02.309Z,6.35
2023-04-15T05:19:30.562Z,6.35
2023-04-15T05:21:58.897Z,6.32
2023-04-15T05:24:28.753Z,6.26
2023-04-15T05:26:57.493Z,6.29
2023-04-15T05:29:25.864Z,6.29
2023-04-15T05:31:54.256Z,6.37
2023-04-15T05:34:22.574Z,6.45
2023-04-15T05:36:50.690Z,6.52
2023-04-15T05:39:19.022Z,6.55
2023-04-15T05:41:48.668Z,6.57
2023-04-15T05:44:16.951Z,6.52
2023-04-15T05:46:45.498Z,6.52
2023-04-15T05:49:13.866Z,6.58
2023-04-15T05:51:42.307Z,6.55
2023-04-15T05:54:11.007Z,6.66
2023-04-15T05:56:39.317Z,6.71
2023-04-15T05:59:08.814Z,6.74
2023-04-15T06:01:37.046Z,6.76
2023-04-15T06:04:05.458Z,6.80
2023-04-15T06:06:33.782Z,6.76
2023-04-15T06:09:02.349Z,6.88
2023-04-15T06:11:31.506Z,7.01
2023-04-15T06:13:59.821Z,7.00
2023-04-15T06:16:29.493Z,7.05
2023-04-15T06:18:57.779Z,7.12
2023-04-15T06:21:27.164Z,7.15
2023-04-15T06:23:56.763Z,7.06
2023-04-15T06:26:25.218Z,7.07
2023-04-15T06:28:53.485Z,7.08
2023-04-15T06:31:21.878Z,7.23
2023-04-15T06:33:51.496Z,7.28
2023-04-15T06:36:19.843Z,7.43
2023-04-15T06:38:48.105Z,7.47
2023-04-15T06:41:16.470Z,7.38
2023-04-15T06:43:44.915Z,7.52
2023-04-15T06:46:13.153Z,7.44
2023-04-15T06:48:41.332Z,7.41
2023-04-15T06:51:11.071Z,7.33
2023-04-15T06:53:41.192Z,7.45
2023-04-15T06:56:09.992Z,7.38
2023-04-15T06:58:38.449Z,7.44
2023-04-15T07:01:07.175Z,7.45
2023-04-15T07:03:35.966Z,7.38
2023-04-15T07:06:06.642Z,7.43
2023-04-15T07:08:36.354Z,7.49
2023-04-15T07:11:04.888Z,7.59
2023-04-15T07:13:33.762Z,7.54
2023-04-15T07:16:02.115Z,7.44
2023-04-15T07:18:30.277Z,7.51
2023-04-15T07:20:58.443Z,7.53
2023-04-15T07:23:26.704Z,7.53
2023-04-15T07:25:57.115Z,7.51
2023-04-15T07:28:25.632Z,7.52
2023-04-15T07:30:54.007Z,7.54
2023-04-15T07:33:22.283Z,7.64
2023-04-15T07:35:50.801Z,7.58
2023-04-15T07:38:19.689Z,7.52
2023-04-15T07:40:48.472Z,7.63
2023-04-15T07:43:19.020Z,7.66
2023-04-15T07:45:47.386Z,7.63
2023-04-15T07:48:16.157Z,7.60
2023-04-15T07:50:44.497Z,7.64
2023-04-15T07:53:12.851Z,7.62
2023-04-15T07:55:41.216Z,7.72
2023-04-15T07:58:09.548Z,7.74
2023-04-15T08:00:39.791Z,7.74
2023-04-15T08:03:08.265Z,7.79
2023-04-15T08:05:36.856Z,7.85
2023-04-15T08:08:05.097Z,7.89
2023-04-15T08:10:33.474Z,7.89
2023-04-15T08:13:01.796Z,7.85
2023-04-15T08:15:30.111Z,8.00
2023-04-15T08:18:00.893Z,8.09
2023-04-15T08:20:29.610Z,8.13
2023-04-15T08:22:58.393Z,8.06
2023-04-15T08:25:26.663Z,8.07
2023-04-15T08:27:57.238Z,8.24
2023-04-15T08:30:25.334Z,8.35
2023-04-15T08:32:53.739Z,8.39
2023-04-15T08:35:23.360Z,8.42
2023-04-15T08:37:51.431Z,8.32
2023-04-15T08:40:19.895Z,8.33
2023-04-15T08:42:51.898Z,8.48
2023-04-15T08:45:21.330Z,8.66
2023-04-15T08:47:55.898Z,8.75
2023-04-15T08:50:28.012Z,8.87
2023-04-15T08:52:57.264Z,8.95
2023-04-15T08:55:28.125Z,9.06
2023-04-15T08:57:57.452Z,8.88
2023-04-15T09:00:26.105Z,8.84
2023-04-15T09:02:54.636Z,9.01
2023-04-15T09:05:23.361Z,8.93
2023-04-15T09:07:53.464Z,8.83
2023-04-15T09:10:21.741Z,8.75
2023-04-15T09:12:49.968Z,8.80
2023-04-15T09:15:19.072Z,8.90
2023-04-15T09:17:48.786Z,8.98
2023-04-15T09:20:18.956Z,9.15
2023-04-15T09:22:49.455Z,9.07
2023-04-15T09:25:34.800Z,9.25
2023-04-15T09:28:04.015Z,9.25
2023-04-15T09:30:32.289Z,9.44
2023-04-15T09:33:02.380Z,9.37
2023-04-15T09:35:31.117Z,9.62
2023-04-15T09:38:04.943Z,9.79
2023-04-15T09:40:36.474Z,9.69
2023-04-15T09:43:05.295Z,9.63
2023-04-15T09:45:34.255Z,9.61
2023-04-15T09:48:17.544Z,9.77
2023-04-15T09:50:46.275Z,9.76
2023-04-15T09:53:19.216Z,9.83
2023-04-15T09:55:52.099Z,9.94
2023-04-15T09:58:21.079Z,9.91
2023-04-15T10:00:51.197Z,9.96
2023-04-15T10:03:21.935Z,10.19
2023-04-15T10:05:51.605Z,10.18
2023-04-15T10:08:21.791Z,10.24
2023-04-15T10:10:51.963Z,10.38
2023-04-15T10:13:22.464Z,10.58
2023-04-15T10:15:53.582Z,10.87
2023-04-15T10:18:22.972Z,11.02
2023-04-15T10:20:52.076Z,11.01
2023-04-15T10:23:21.845Z,11.21
2023-04-15T10:25:54.066Z,11.51
2023-04-15T10:28:22.935Z,11.41
2023-04-15T10:30:52.182Z,11.43
2023-04-15T10:33:23.474Z,11.35
2023-04-15T10:35:53.181Z,11.35
2023-04-15T10:38:35.671Z,11.32
2023-04-15T10:41:21.180Z,11.16
2023-04-15T10:43:51.816Z,11.19
2023-04-15T10:46:22.061Z,10.98
2023-04-15T10:48:51.686Z,10.95
2023-04-15T10:51:29.708Z,11.10
2023-04-15T10:53:59.593Z,11.43
2023-04-15T10:56:30.175Z,11.21
2023-04-15T10:59:00.897Z,11.01
2023-04-15T11:01:54.265Z,11.09
2023-04-15T11:04:54.319Z,10.88
2023-04-15T11:07:36.067Z,10.69
2023-04-15T11:10:05.035Z,10.70
2023-04-15T11:12:38.816Z,10.68
2023-04-15T11:15:30.415Z,10.86
2023-04-15T11:17:59.023Z,10.83
2023-04-15T11:20:27.611Z,10.97
2023-04-15T11:23:13.907Z,10.68
2023-04-15T11:25:43.928Z,10.74
2023-04-15T11:28:14.438Z,10.61
2023-04-15T11:30:43.849Z,10.69
2023-04-15T11:33:13.950Z,10.80
2023-04-15T11:35:42.710Z,11.05
2023-04-15T11:38:12.664Z,11.07
2023-04-15T11:40:43.836Z,10.88
2023-04-15T11:43:16.848Z,10.80
2023-04-15T11:45:54.169Z,10.74
2023-04-15T11:48:24.327Z,10.98
2023-04-15T11:50:57.035Z,11.02
2023-04-15T11:53:26.102Z,10.81
2023-04-15T11:55:55.410Z,11.06
2023-04-15T11:58:28.025Z,11.25
2023-04-15T12:01:00.323Z,11.24
2023-04-15T12:03:30.427Z,11.32
2023-04-15T12:06:18.008Z,11.32
2023-04-15T12:09:06.284Z,11.26
2023-04-15T12:11:54.225Z,11.41
2023-04-15T12:14:28.409Z,11.50
2023-04-15T12:17:00.451Z,11.45
2023-04-15T12:19:30.912Z,11.31
2023-04-15T12:22:01.023Z,11.24
2023-04-15T12:24:32.431Z,11.36
2023-04-15T12:27:04.795Z,11.18
2023-04-15T12:29:35.527Z,11.32
2023-04-15T12:32:07.677Z,11.35
2023-04-15T12:34:38.357Z,11.36
2023-04-15T12:37:09.649Z,11.66
2023-04-15T12:39:40.027Z,11.56
2023-04-15T12:42:09.172Z,11.64
2023-04-15T12:44:40.090Z,11.66
2023-04-15T12:47:09.621Z,11.71
2023-04-15T12:49:38.277Z,11.73
2023-04-15T12:52:06.921Z,11.99
2023-04-15T12:54:36.323Z,11.88
2023-04-15T12:57:07.272Z,12.08
2023-04-15T12:59:36.199Z,12.11
2023-04-15T13:02:06.111Z,12.23
2023-04-15T13:04:34.442Z,11.92
2023-04-15T13:07:03.206Z,11.90
2023-04-15T13:09:31.517Z,11.88
2023-04-15T13:12:00.157Z,11.91
2023-04-15T13:14:28.705Z,11.81
2023-04-15T13:16:57.145Z,11.85
2023-04-15T13:19:27.020Z,11.85
2023-04-15T13:21:55.695Z,11.83
2023-04-15T13:24:23.949Z,11.95
2023-04-15T13:26:52.266Z,11.96
2023-04-15T13:29:20.652Z,11.86
2023-04-15T13:31:49.062Z,12.04
2023-04-15T13:34:17.402Z,12.25
2023-04-15T13:36:47.070Z,12.25
2023-04-15T13:39:15.299Z,12.13
2023-04-15T13:41:43.498Z,12.14
2023-04-15T13:44:12.432Z,12.23
2023-04-15T13:46:42.050Z,11.87
2023-04-15T13:49:10.511Z,11.91
2023-04-15T13:51:39.049Z,12.14
2023-04-15T13:54:09.069Z,12.35
2023-04-15T13:56:37.583Z,11.92
2023-04-15T13:59:06.765Z,11.74
2023-04-15T14:01:36.019Z,11.78
2023-04-15T14:04:04.664Z,11.57
2023-04-15T14:06:33.639Z,11.46
2023-04-15T14:09:01.892Z,11.47
2023-04-15T14:11:31.492Z,11.37
2023-04-15T14:13:59.644Z,10.98
2023-04-15T14:16:28.233Z,11.10
2023-04-15T14:18:58.166Z,11.20
2023-04-15T14:21:26.521Z,11.38
2023-04-15T14:23:56.358Z,11.10
2023-04-15T14:26:25.256Z,10.75
2023-04-15T14:28:56.212Z,11.00
2023-04-15T14:31:25.724Z,11.12
2023-04-15T14:33:54.373Z,11.28
2023-04-15T14:36:23.006Z,11.35
2023-04-15T14:38:51.710Z,11.24
2023-04-15T14:41:20.053Z,11.03
2023-04-15T14:43:48.652Z,11.26
2023-04-15T14:46:18.500Z,11.22
2023-04-15T14:48:46.964Z,11.05
2023-04-15T14:51:15.880Z,11.04
2023-04-15T14:53:44.676Z,11.14
2023-04-15T14:56:13.191Z,11.28
2023-04-15T14:58:41.511Z,11.35
2023-04-15T15:01:10.209Z,11.43
2023-04-15T15:03:40.533Z,11.27
2023-04-15T15:06:09.726Z,11.25
2023-04-15T15:08:38.379Z,11.32
2023-04-15T15:11:06.695Z,11.33
2023-04-15T15:13:35.235Z,11.27
2023-04-15T15:16:04.022Z,11.12
2023-04-15T15:18:32.934Z,11.18
2023-04-15T15:21:02.877Z,11.14
2023-04-15T15:23:32.204Z,11.15
2023-04-15T15:26:01.771Z,11.17
2023-04-15T15:28:30.166Z,11.07
2023-04-15T15:30:58.447Z,11.09
2023-04-15T15:33:28.084Z,10.90
2023-04-15T15:35:59.358Z,10.76
2023-04-15T15:38:29.469Z,10.93
2023-04-15T15:40:58.039Z,10.92
2023-04-15T15:43:26.316Z,10.99
2023-04-15T15:45:55.747Z,10.88
2023-04-15T15:48:24.868Z,10.84
2023-04-15T15:50:53.856Z,10.70
2023-04-15T15:53:24.468Z,10.57
2023-04-15T15:55:54.291Z,10.47
2023-04-15T15:58:23.404Z,10.61
2023-04-15T16:00:51.816Z,10.68
2023-04-15T16:03:20.406Z,10.57
2023-04-15T16:05:48.981Z,10.48
2023-04-15T16:08:17.272Z,10.49
2023-04-15T16:10:45.993Z,10.43
2023-04-15T16:13:15.702Z,10.45
2023-04-15T16:15:44.162Z,10.44
2023-04-15T16:18:12.695Z,10.40
2023-04-15T16:20:44.348Z,10.30
2023-04-15T16:23:14.753Z,10.10
2023-04-15T16:25:44.556Z,10.12
2023-04-15T16:28:25.755Z,10.02
2023-04-15T16:30:57.357Z,9.93
2023-04-15T16:33:27.014Z,9.76
2023-04-15T16:35:56.043Z,9.44
2023-04-15T16:38:24.504Z,9.12
2023-04-15T16:40:53.101Z,8.99
2023-04-15T16:43:21.922Z,9.01
2023-04-15T16:45:51.601Z,9.06
2023-04-15T16:48:26.972Z,9.06
2023-04-15T16:50:55.650Z,9.08
2023-04-15T16:53:24.401Z,9.01
2023-04-15T16:55:52.786Z,8.84
2023-04-15T16:58:22.840Z,8.84
2023-04-15T17:00:52.335Z,8.89
2023-04-15T17:03:23.035Z,8.86
2023-04-15T17:05:51.454Z,8.89
2023-04-15T17:08:20.711Z,8.90
2023-04-15T17:10:51.890Z,8.84
2023-04-15T17:13:20.678Z,8.82
2023-04-15T17:15:49.453Z,8.76
2023-04-15T17:18:18.252Z,8.72
2023-04-15T17:20:48.075Z,8.72
2023-04-15T17:23:16.741Z,8.62
2023-04-15T17:25:45.530Z,8.61
2023-04-15T17:28:14.236Z,8.59
2023-04-15T17:30:42.689Z,8.51
2023-04-15T17:33:56.045Z,8.48
2023-04-15T17:36:03.455Z,8.39
2023-04-15T17:38:32.574Z,8.38
2023-04-15T17:41:01.269Z,8.38
2023-04-15T17:43:30.863Z,8.35
2023-04-15T17:45:59.661Z,8.29
2023-04-15T17:48:29.021Z,8.23
2023-04-15T17:50:58.377Z,8.02
2023-04-15T17:53:28.763Z,8.12
2023-04-15T17:55:58.352Z,8.16
2023-04-15T17:58:28.684Z,8.15
2023-04-15T18:00:58.097Z,8.14
2023-04-15T18:03:27.765Z,8.14
2023-04-15T18:05:57.921Z,8.05
2023-04-15T18:08:28.588Z,8.01
2023-04-15T18:10:57.722Z,7.95
2023-04-15T18:13:27.129Z,7.93
2023-04-15T18:15:57.783Z,7.94
2023-04-15T18:23:11.481Z,7.82
2023-04-15T18:25:44.019Z,7.78
2023-04-15T18:28:15.286Z,7.75
2023-04-15T18:30:45.892Z,7.71
2023-04-15T18:33:15.761Z,7.73
2023-04-15T18:35:44.440Z,7.64
2023-04-15T18:38:13.654Z,7.60
2023-04-15T18:40:44.959Z,7.69
2023-04-15T18:43:13.937Z,7.75
2023-04-15T18:45:43.161Z,7.67
2023-04-15T18:48:11.988Z,7.62
2023-04-15T18:50:41.439Z,7.57
2023-04-15T18:53:10.604Z,7.55
2023-04-15T18:55:41.224Z,7.53
2023-04-15T18:58:11.987Z,7.57
2023-04-15T19:00:41.939Z,7.62
2023-04-15T19:03:11.872Z,7.53
2023-04-15T19:05:43.286Z,7.44
2023-04-15T19:08:12.933Z,7.46
2023-04-15T19:10:42.337Z,7.45
2023-04-15T19:13:18.792Z,7.44
2023-04-15T19:15:50.749Z,7.36
2023-04-15T19:18:20.495Z,7.31
2023-04-15T19:20:52.777Z,7.29
2023-04-15T19:23:22.525Z,7.31
2023-04-15T19:25:52.259Z,7.34
2023-04-15T19:28:22.184Z,7.21
2023-04-15T19:30:55.761Z,7.18
2023-04-15T19:33:27.570Z,7.19
2023-04-15T19:35:56.710Z,7.18
2023-04-15T19:38:25.306Z,7.18
2023-04-15T19:40:56.112Z,7.18
2023-04-15T19:43:26.570Z,7.15
2023-04-15T19:45:59.565Z,7.07
2023-04-15T19:48:28.819Z,6.99
2023-04-15T19:51:00.573Z,6.97
2023-04-15T19:53:30.250Z,6.90
2023-04-15T19:55:59.595Z,6.87
2023-04-15T19:58:30.151Z,6.85
2023-04-15T20:00:59.495Z,6.74
2023-04-15T20:03:29.400Z,6.65
2023-04-15T20:06:00.744Z,6.56
2023-04-15T20:08:32.773Z,6.51
2023-04-15T20:11:02.121Z,6.45
2023-04-15T20:13:33.696Z,6.38
2023-04-15T20:16:03.332Z,6.22
2023-04-15T20:18:35.368Z,6.16
2023-04-15T20:21:06.831Z,6.08
2023-04-15T20:23:43.122Z,6.04
2023-04-15T20:26:21.505Z,5.94
2023-04-15T20:28:52.164Z,5.84
2023-04-15T20:31:23.603Z,5.79
2023-04-15T20:33:53.187Z,5.74
2023-04-15T20:36:22.883Z,5.65
2023-04-15T20:38:55.338Z,5.58
2023-04-15T20:41:25.415Z,5.46
2023-04-15T20:43:57.965Z,5.33
2023-04-15T20:46:27.817Z,5.28
2023-04-15T20:48:56.872Z,5.18
2023-04-15T20:51:25.344Z,5.12
2023-04-15T20:53:54.198Z,5.06
2023-04-15T20:56:23.804Z,4.98
2023-04-15T20:58:52.567Z,4.90
2023-04-15T21:01:23.755Z,4.83
2023-04-15T21:03:52.478Z,4.74
2023-04-15T21:06:21.363Z,4.68
2023-04-15T21:08:50.046Z,4.63
2023-04-15T21:11:33.215Z,4.61
2023-04-15T21:14:08.765Z,4.59
2023-04-15T21:16:38.346Z,4.56
2023-04-15T21:19:06.843Z,4.48
2023-04-15T21:21:35.671Z,4.48
2023-04-15T21:24:04.178Z,4.46
2023-04-15T21:26:32.492Z,4.46
2023-04-15T21:29:40.473Z,4.41
2023-04-15T21:32:28.967Z,4.37
2023-04-15T21:35:29.501Z,4.28
2023-04-15T21:38:02.683Z,4.27
2023-04-15T21:40:31.108Z,4.18
2023-04-15T21:42:59.428Z,4.14
2023-04-15T21:45:27.609Z,4.09
2023-04-15T21:48:07.744Z,4.14
2023-04-15T21:50:37.561Z,4.12
2023-04-15T21:53:05.946Z,4.09
2023-04-15T21:55:34.288Z,4.09
2023-04-15T21:58:02.477Z,3.98
2023-04-15T22:00:30.887Z,3.92
2023-04-15T22:03:00.630Z,3.93
2023-04-15T22:05:29.035Z,3.93
2023-04-15T22:07:58.420Z,3.87
2023-04-15T22:10:26.761Z,3.73
2023-04-15T22:12:57.079Z,3.76
2023-04-15T22:15:25.235Z,3.74
2023-04-15T22:17:53.526Z,3.65
2023-04-15T22:20:23.242Z,3.69
2023-04-15T22:22:54.373Z,3.67
2023-04-15T22:25:22.999Z,3.70
2023-04-15T22:27:51.240Z,3.74
2023-04-15T22:30:19.471Z,3.67
2023-04-15T22:32:47.918Z,3.67
2023-04-15T22:35:16.191Z,3.75
2023-04-15T22:37:45.793Z,3.73
2023-04-15T22:40:14.373Z,3.76
2023-04-15T22:42:42.590Z,3.71
2023-04-15T22:45:11.595Z,3.66
2023-04-15T22:47:39.889Z,3.69
2023-04-15T22:50:09.378Z,3.62
2023-04-15T22:52:38.033Z,3.59
2023-04-15T22:55:08.941Z,3.64
2023-04-15T22:57:37.330Z,3.59
2023-04-15T23:00:06.482Z,3.65
2023-04-15T23:02:34.965Z,3.54
2023-04-15T23:05:06.289Z,3.53
2023-04-15T23:07:41.381Z,3.59
2023-04-15T23:10:11.760Z,3.54
2023-04-15T23:12:40.058Z,3.54
2023-04-15T23:15:09.592Z,3.52
2023-04-15T23:17:37.799Z,3.46
2023-04-15T23:20:06.762Z,3.46
2023-04-15T23:22:37.708Z,3.45
2023-04-15T23:25:06.528Z,3.47
2023-04-15T23:27:36.238Z,3.44
2023-04-15T23:30:05.077Z,3.41
2023-04-15T23:32:33.351Z,3.43
2023-04-15T23:35:01.683Z,3.46
2023-04-15T23:37:31.627Z,3.43
2023-04-15T23:39:59.926Z,3.45
2023-04-15T23:42:28.332Z,3.42
2023-04-15T23:44:57.916Z,3.35
2023-04-15T23:47:26.139Z,3.37
2023-04-15T23:49:54.463Z,3.44
2023-04-15T23:52:23.462Z,3.40
2023-04-15T23:54:51.648Z,3.45
2023-04-15T23:57:20.101Z,3.44
2023-04-15T23:59:48.247Z,3.38
